Time;durP1;ratioP1;P1;durP2;ratioP2;P2;SDS_P1;SDS_P2;PMS_P1;PMS_P2;Temp;Humidity;BMP_temperature;BMP_pressure;BME280_temperature;BME280_humidity;BME280_pressure;Samples;Min_cycle;Max_cycle;Signal;HPM_P1;HPM_P2
2022/08/05 00:01:42;;;;;;;1999.90;999.90;;;;;;;18.20;100.00;99659.97;5052551;28;20190;-55
2022/08/05 00:04:26;;;;;;;1999.90;999.90;;;;;;;18.11;100.00;99652.53;5058584;28;20111;-52
2022/08/05 00:07:10;;;;;;;1999.90;999.90;;;;;;;18.08;100.00;99658.03;5051106;28;20049;-56
2022/08/05 00:09:55;;;;;;;1999.90;999.90;;;;;;;17.98;100.00;99660.34;5051192;28;20439;-54
2022/08/05 00:12:39;;;;;;;1999.90;999.90;;;;;;;17.97;100.00;99661.28;5049199;28;20072;-52
2022/08/05 00:15:23;;;;;;;1999.90;999.90;;;;;;;17.89;100.00;99652.94;5056164;28;20043;-55
2022/08/05 00:18:07;;;;;;;1999.90;999.90;;;;;;;17.80;100.00;99659.59;5052833;28;20392;-53
2022/08/05 00:20:54;;;;;;;1999.90;999.90;;;;;;;17.77;100.00;99657.13;5048732;28;20044;-55
2022/08/05 00:23:39;;;;;;;1999.90;999.90;;;;;;;17.68;100.00;99655.84;5054108;28;20414;-52
2022/08/05 00:26:24;;;;;;;1999.90;999.90;;;;;;;17.69;100.00;99652.25;5051841;28;20052;-55
2022/08/05 00:29:08;;;;;;;1999.90;999.90;;;;;;;17.76;100.00;99660.69;5049456;28;20048;-56
2022/08/05 00:31:54;;;;;;;1999.90;999.90;;;;;;;17.67;100.00;99655.91;5051460;28;20067;-53
2022/08/05 00:34:39;;;;;;;1999.90;999.90;;;;;;;17.72;100.00;99653.88;5051684;28;20131;-53
2022/08/05 00:37:24;;;;;;;1999.90;999.90;;;;;;;17.62;100.00;99647.38;5053713;28;20403;-53
2022/08/05 00:40:09;;;;;;;1999.90;999.90;;;;;;;17.61;100.00;99649.16;5053988;28;20877;-52
2022/08/05 00:42:54;;;;;;;1999.90;999.90;;;;;;;17.65;100.00;99645.41;5053168;28;20051;-53
2022/08/05 00:45:39;;;;;;;1999.90;999.90;;;;;;;17.47;100.00;99633.19;5055025;28;20392;-55
2022/08/05 00:48:24;;;;;;;1999.90;999.90;;;;;;;17.50;100.00;99638.31;5057445;28;20097;-53
2022/08/05 00:51:08;;;;;;;1999.90;999.90;;;;;;;17.54;100.00;99650.44;5054450;28;20064;-54
2022/08/05 00:53:53;;;;;;;1999.90;999.90;;;;;;;17.47;100.00;99649.09;5061189;28;20071;-53
2022/08/05 00:56:38;;;;;;;1999.90;999.90;;;;;;;17.49;100.00;99639.28;5056751;28;20549;-54
2022/08/05 00:59:22;;;;;;;1999.90;999.90;;;;;;;17.41;100.00;99636.19;5059189;28;20052;-52
2022/08/05 01:02:06;;;;;;;1999.90;999.90;;;;;;;17.39;100.00;99635.44;5058225;28;20081;-53
2022/08/05 01:04:51;;;;;;;1999.90;999.90;;;;;;;17.39;100.00;99632.78;5057354;28;20041;-52
2022/08/05 01:07:35;;;;;;;1999.90;999.90;;;;;;;17.34;100.00;99630.38;5056902;28;20060;-54
2022/08/05 01:10:26;;;;;;;1999.90;999.90;;;;;;;17.34;100.00;99626.88;5057796;28;20098;-50
2022/08/05 01:13:18;;;;;;;1999.90;999.90;;;;;;;17.31;100.00;99630.56;5059711;28;20107;-55
2022/08/05 01:16:08;;;;;;;1999.90;999.90;;;;;;;17.24;100.00;99634.47;5058612;28;20039;-54
2022/08/05 01:18:59;;;;;;;1999.90;999.90;;;;;;;17.32;100.00;99631.41;5056817;28;20041;-53
2022/08/05 01:21:58;;;;;;;1999.90;999.90;;;;;;;17.24;100.00;99619.47;5058794;28;20045;-54
2022/08/05 01:24:48;;;;;;;1999.90;999.90;;;;;;;17.03;100.00;99620.66;5059782;28;20102;-53
2022/08/05 01:27:54;;;;;;;1999.90;999.90;;;;;;;16.90;100.00;99609.00;5053923;28;20036;-54
2022/08/05 01:30:45;;;;;;;1999.90;999.90;;;;;;;16.93;100.00;99607.06;5056608;28;20114;-55
2022/08/05 01:33:38;;;;;;;1999.90;999.90;;;;;;;16.94;100.00;99606.13;5061039;28;20098;-51
2022/08/05 01:36:28;;;;;;;1999.90;999.90;;;;;;;17.01;100.00;99604.84;5053081;28;20055;-54
2022/08/05 01:39:14;;;;;;;1999.90;999.90;;;;;;;17.00;100.00;99603.16;5058165;28;20095;-53
2022/08/05 01:42:00;;;;;;;1999.90;999.90;;;;;;;16.93;100.00;99601.78;5059704;28;20067;-57
2022/08/05 01:44:47;;;;;;;1999.90;999.90;;;;;;;16.96;100.00;99596.28;5059553;28;20072;-55
2022/08/05 01:47:33;;;;;;;1999.90;999.90;;;;;;;16.77;100.00;99604.41;5061695;28;20115;-57
2022/08/05 01:50:25;;;;;;;1999.90;999.90;;;;;;;16.84;100.00;99597.00;5069868;28;20049;-55
2022/08/05 01:53:12;;;;;;;1999.90;999.90;;;;;;;16.77;100.00;99593.81;5055342;28;20079;-52
2022/08/05 01:56:00;;;;;;;1999.90;999.90;;;;;;;16.64;100.00;99605.06;5057225;28;20425;-54
2022/08/05 01:58:47;;;;;;;1999.90;999.90;;;;;;;16.76;100.00;99594.72;5058333;28;20059;-54
2022/08/05 02:01:36;;;;;;;1999.90;999.90;;;;;;;16.70;100.00;99586.25;5068258;28;20051;-52
2022/08/05 02:04:22;;;;;;;1999.90;999.90;;;;;;;16.69;100.00;99585.41;5052853;28;20040;-55
2022/08/05 02:07:07;;;;;;;1999.90;999.90;;;;;;;16.68;100.00;99586.34;5058321;28;20392;-53
2022/08/05 02:09:51;;;;;;;1999.90;999.90;;;;;;;16.74;100.00;99580.72;5061834;28;20078;-53
2022/08/05 02:12:40;;;;;;;1999.90;999.90;;;;;;;16.63;100.00;99576.94;5055314;28;20041;-54
2022/08/05 02:15:33;;;;;;;1999.90;999.90;;;;;;;16.56;100.00;99581.69;5055044;28;20052;-54
2022/08/05 02:18:39;;;;;;;1999.90;999.90;;;;;;;16.55;100.00;99574.72;5052513;28;20045;-56
2022/08/05 02:21:35;;;;;;;1999.90;999.90;;;;;;;16.42;100.00;99569.22;5054924;28;20102;-53
2022/08/05 02:24:25;;;;;;;1999.90;999.90;;;;;;;16.53;100.00;99579.22;5057083;28;20689;-53
2022/08/05 02:27:11;;;;;;;1999.90;999.90;;;;;;;16.58;100.00;99579.84;5055910;28;20036;-51
2022/08/05 02:29:58;;;;;;;1999.90;999.90;;;;;;;16.49;100.00;99577.69;5055623;28;20105;-52
2022/08/05 02:32:47;;;;;;;1999.90;999.90;;;;;;;16.43;100.00;99568.28;5056907;28;20056;-58
2022/08/05 02:35:33;;;;;;;1999.90;999.90;;;;;;;16.29;100.00;99570.81;5055767;28;20077;-57
2022/08/05 02:38:18;;;;;;;1999.90;999.90;;;;;;;16.16;100.00;99570.59;5062198;28;20186;-56
2022/08/05 02:41:04;;;;;;;1999.90;999.90;;;;;;;16.40;100.00;99565.81;5051245;28;20506;-54
2022/08/05 02:43:50;;;;;;;1999.90;999.90;;;;;;;16.47;100.00;99559.25;5053390;28;20037;-55
2022/08/05 02:46:38;;;;;;;1999.90;999.90;;;;;;;16.39;100.00;99558.81;5054885;28;20067;-54
2022/08/05 02:49:25;;;;;;;1999.90;999.90;;;;;;;16.26;100.00;99558.59;5050538;28;20052;-52
2022/08/05 02:52:14;;;;;;;1999.90;999.90;;;;;;;16.31;100.00;99561.88;5054012;28;20098;-54
2022/08/05 02:55:03;;;;;;;1999.90;999.90;;;;;;;16.26;100.00;99555.13;5055927;28;20040;-54
2022/08/05 02:57:49;;;;;;;1999.90;999.90;;;;;;;16.32;100.00;99557.44;5053984;28;20111;-50
2022/08/05 03:00:35;;;;;;;1999.90;999.90;;;;;;;16.22;100.00;99556.22;5055238;28;20033;-54
2022/08/05 03:03:21;;;;;;;1999.90;999.90;;;;;;;16.21;100.00;99552.69;5053978;28;20063;-52
2022/08/05 03:06:09;;;;;;;1999.90;999.90;;;;;;;16.26;100.00;99552.47;5069006;28;20093;-55
2022/08/05 03:08:54;;;;;;;1999.90;999.90;;;;;;;16.24;100.00;99543.75;5068616;28;20381;-54
2022/08/05 03:11:41;;;;;;;1999.90;999.90;;;;;;;16.26;100.00;99550.69;5071265;28;20518;-56
2022/08/05 03:14:27;;;;;;;1999.90;999.90;;;;;;;16.34;100.00;99547.63;5067330;28;20060;-54
2022/08/05 03:17:11;;;;;;;1999.90;999.90;;;;;;;16.27;100.00;99540.97;5058855;28;20044;-53
2022/08/05 03:19:56;;;;;;;1999.90;999.90;;;;;;;16.31;100.00;99537.22;5066540;28;20056;-51
2022/08/05 03:22:40;;;;;;;1999.90;999.90;;;;;;;16.40;100.00;99535.88;5056535;28;20047;-55
2022/08/05 03:25:26;;;;;;;1999.90;999.90;;;;;;;16.33;100.00;99535.34;5056433;28;20681;-53
2022/08/05 03:28:10;;;;;;;1999.90;999.90;;;;;;;16.34;100.00;99537.91;5053595;28;20037;-55
2022/08/05 03:30:56;;;;;;;1999.90;999.90;;;;;;;16.39;100.00;99539.47;5055136;28;20908;-52
2022/08/05 03:33:41;;;;;;;1999.90;999.90;;;;;;;16.33;100.00;99530.91;5064031;28;20615;-54
2022/08/05 03:36:26;;;;;;;1999.90;999.90;;;;;;;16.38;100.00;99524.53;5071972;28;20044;-54
2022/08/05 03:39:11;;;;;;;1999.90;999.90;;;;;;;16.38;100.00;99530.69;5057997;28;20126;-54
2022/08/05 03:41:56;;;;;;;1999.90;999.90;;;;;;;16.25;100.00;99526.97;5053605;28;20048;-53
2022/08/05 03:44:41;;;;;;;1999.90;999.90;;;;;;;16.26;100.00;99532.19;5055152;28;20045;-51
2022/08/05 03:47:25;;;;;;;1999.90;999.90;;;;;;;16.32;100.00;99526.56;5057914;28;20643;-56
2022/08/05 03:50:10;;;;;;;1999.90;999.90;;;;;;;16.41;100.00;99527.00;5056619;28;20066;-56
2022/08/05 03:53:06;;;;;;;1999.90;999.90;;;;;;;16.40;100.00;99527.94;5056582;28;20037;-55
2022/08/05 03:56:29;;;;;;;1999.90;999.90;;;;;;;16.40;100.00;99528.78;5062291;28;20048;-53
2022/08/05 03:59:36;;;;;;;1999.90;999.90;;;;;;;16.47;100.00;99532.81;5055784;28;20059;-55
2022/08/05 04:02:24;;;;;;;1999.90;999.90;;;;;;;16.57;100.00;99522.59;5062755;28;20097;-56
2022/08/05 04:05:11;;;;;;;1999.90;999.90;;;;;;;16.57;100.00;99528.75;5052921;28;20051;-56
2022/08/05 04:07:55;;;;;;;1999.90;999.90;;;;;;;16.58;100.00;99521.69;5058087;28;20168;-54
2022/08/05 04:10:42;;;;;;;1999.90;999.90;;;;;;;16.72;100.00;99526.22;5057485;28;20094;-54
2022/08/05 04:13:28;;;;;;;1999.90;999.90;;;;;;;16.79;100.00;99524.97;5053076;28;20044;-53
2022/08/05 04:16:13;;;;;;;1999.90;999.90;;;;;;;16.79;100.00;99528.47;5067174;28;20098;-54
2022/08/05 04:18:58;;;;;;;1999.90;999.90;;;;;;;16.89;100.00;99525.31;5064693;28;20051;-54
2022/08/05 04:21:42;;;;;;;1999.90;999.90;;;;;;;17.11;100.00;99530.25;5060051;28;20063;-50
2022/08/05 04:24:26;;;;;;;1999.90;999.90;;;;;;;17.29;100.00;99527.44;5054219;28;20651;-51
2022/08/05 04:27:12;;;;;;;1999.90;999.90;;;;;;;17.39;100.00;99526.91;5061905;28;20076;-56
2022/08/05 04:29:56;;;;;;;1999.90;999.90;;;;;;;17.72;100.00;99526.75;5050273;28;20052;-54
2022/08/05 04:32:41;;;;;;;1999.90;999.90;;;;;;;17.95;100.00;99526.25;5054394;28;20049;-54
2022/08/05 04:35:26;;;;;;;1999.90;999.90;;;;;;;17.83;100.00;99523.47;5051417;28;20041;-53
2022/08/05 04:38:13;;;;;;;1999.90;999.90;;;;;;;18.39;100.00;99517.41;5051850;28;20079;-57
2022/08/05 04:40:57;;;;;;;1999.90;999.90;;;;;;;18.90;100.00;99523.03;5068047;28;20106;-54
2022/08/05 04:43:42;;;;;;;1999.90;999.90;;;;;;;19.32;100.00;99515.91;5057050;28;20067;-54
2022/08/05 04:46:26;;;;;;;1999.90;999.90;;;;;;;19.53;100.00;99513.66;5057099;28;20048;-54
2022/08/05 04:49:11;;;;;;;1999.90;999.90;;;;;;;19.70;100.00;99514.38;5055696;28;20052;-53
2022/08/05 04:51:55;;;;;;;1999.90;999.90;;;;;;;19.88;100.00;99512.25;5054353;28;20795;-56
2022/08/05 04:54:40;;;;;;;1999.90;999.90;;;;;;;20.29;100.00;99509.41;5054439;28;20049;-54
2022/08/05 04:57:25;;;;;;;1999.90;999.90;;;;;;;20.80;100.00;99512.03;5055113;28;20503;-55
2022/08/05 05:00:10;;;;;;;1999.90;999.90;;;;;;;21.08;100.00;99510.84;5051462;28;20052;-55
2022/08/05 05:02:55;;;;;;;1999.90;999.90;;;;;;;21.22;100.00;99515.16;5056093;28;20405;-56
2022/08/05 05:05:40;;;;;;;1999.90;999.90;;;;;;;20.91;100.00;99512.09;5053614;28;20080;-54
2022/08/05 05:08:24;;;;;;;1999.90;999.90;;;;;;;21.24;100.00;99515.91;5063956;28;20044;-54
2022/08/05 05:11:09;;;;;;;1999.90;999.90;;;;;;;21.75;100.00;99507.69;5060746;28;20079;-56
2022/08/05 05:13:53;;;;;;;1999.90;999.90;;;;;;;21.46;100.00;99515.19;5051683;28;20037;-53
2022/08/05 05:16:38;;;;;;;1999.90;999.90;;;;;;;22.06;100.00;99511.50;5053342;28;20056;-53
2022/08/05 05:19:22;;;;;;;1999.90;999.90;;;;;;;22.38;100.00;99517.00;5051799;28;20059;-55
2022/08/05 05:22:07;;;;;;;1999.90;999.90;;;;;;;22.42;100.00;99511.44;5054157;28;20094;-52
2022/08/05 05:24:52;;;;;;;1999.90;999.90;;;;;;;22.49;100.00;99515.31;5056342;28;20043;-54
2022/08/05 05:27:37;;;;;;;1999.90;999.90;;;;;;;22.39;100.00;99518.72;5058962;28;20464;-55
2022/08/05 05:30:22;;;;;;;1999.90;999.90;;;;;;;22.12;100.00;99520.84;5052775;28;20053;-54
2022/08/05 05:33:07;;;;;;;1999.90;999.90;;;;;;;22.66;100.00;99519.34;5068951;28;20154;-54
2022/08/05 05:35:52;;;;;;;1999.90;999.90;;;;;;;23.15;100.00;99518.91;5064424;28;20509;-54
2022/08/05 05:38:36;;;;;;;1999.90;999.90;;;;;;;22.99;100.00;99524.66;5063476;28;20041;-55
2022/08/05 05:41:20;;;;;;;1999.90;999.90;;;;;;;23.28;100.00;99519.59;5067691;28;20083;-55
2022/08/05 05:44:05;;;;;;;1999.90;999.90;;;;;;;23.47;100.00;99518.09;5061155;28;20106;-56
2022/08/05 05:46:49;;;;;;;1999.90;999.90;;;;;;;23.81;100.00;99520.63;5065946;28;20045;-54
2022/08/05 05:49:34;;;;;;;1999.90;999.90;;;;;;;23.79;100.00;99518.09;5068885;28;20036;-58
2022/08/05 05:52:18;;;;;;;1999.90;999.90;;;;;;;23.50;100.00;99512.50;5059035;28;20063;-53
2022/08/05 05:55:10;;;;;;;1999.90;999.90;;;;;;;24.21;100.00;99513.59;5056716;28;20060;-56
2022/08/05 05:57:54;;;;;;;1999.90;999.90;;;;;;;24.36;100.00;99511.38;5058876;28;20093;-57
2022/08/05 06:00:38;;;;;;;1999.90;999.90;;;;;;;24.26;100.00;99510.50;5061807;28;20052;-57
2022/08/05 06:03:23;;;;;;;1999.90;999.90;;;;;;;24.05;100.00;99510.53;5062885;28;20210;-56
2022/08/05 06:06:07;;;;;;;1999.90;999.90;;;;;;;24.20;100.00;99521.72;5067583;28;20063;-54
2022/08/05 06:08:51;;;;;;;1999.90;999.90;;;;;;;24.58;100.00;99513.06;5072166;28;20054;-54
2022/08/05 06:11:36;;;;;;;1999.90;999.90;;;;;;;24.78;100.00;99507.78;5065533;28;20052;-55
2022/08/05 06:14:20;;;;;;;1999.90;999.90;;;;;;;24.51;100.00;99506.56;5062096;28;20067;-60
2022/08/05 06:17:04;;;;;;;1999.90;999.90;;;;;;;24.44;100.00;99500.06;5069861;28;20475;-56
2022/08/05 06:19:49;;;;;;;1999.90;999.90;;;;;;;24.86;100.00;99513.28;5054956;28;20522;-54
2022/08/05 06:22:34;;;;;;;1999.90;999.90;;;;;;;24.67;100.00;99514.09;5057186;28;20122;-55
2022/08/05 06:25:18;;;;;;;1999.90;999.90;;;;;;;25.32;100.00;99509.22;5064214;28;20501;-53
2022/08/05 06:28:03;;;;;;;1999.90;999.90;;;;;;;25.65;100.00;99505.25;5061867;28;20044;-57
2022/08/05 06:30:47;;;;;;;1999.90;999.90;;;;;;;25.87;99.37;99509.50;5058899;28;20047;-55
2022/08/05 06:33:32;;;;;;;1999.90;999.90;;;;;;;26.13;98.39;99498.13;5067287;28;20052;-56
2022/08/05 06:36:16;;;;;;;1999.90;999.90;;;;;;;25.95;100.00;99506.94;5066966;28;20577;-57
2022/08/05 06:39:01;;;;;;;1999.90;999.90;;;;;;;25.41;100.00;99511.91;5068514;28;20040;-55
2022/08/05 06:41:46;;;;;;;1999.90;999.90;;;;;;;25.52;99.91;99502.00;5065634;28;20048;-54
2022/08/05 06:44:31;;;;;;;1999.90;999.90;;;;;;;26.14;98.98;99502.53;5069282;28;20698;-55
2022/08/05 06:47:15;;;;;;;1999.90;999.90;;;;;;;25.69;100.00;99497.78;5068115;28;20356;-58
2022/08/05 06:50:00;;;;;;;1999.90;999.90;;;;;;;26.64;100.00;99491.47;5069698;28;20055;-56
2022/08/05 06:52:44;;;;;;;1999.90;999.90;;;;;;;27.30;100.00;99496.63;5069856;28;20141;-56
2022/08/05 06:55:28;;;;;;;1999.90;999.90;;;;;;;27.27;100.00;99496.94;5058698;28;20110;-58
2022/08/05 06:58:13;;;;;;;1999.90;999.90;;;;;;;27.26;96.84;99492.53;5064763;28;20091;-55
2022/08/05 07:00:58;;;;;;;1999.90;999.90;;;;;;;27.28;100.00;99493.25;5068652;28;20101;-56
2022/08/05 07:03:42;;;;;;;1999.90;999.90;;;;;;;27.56;99.86;99487.75;5062491;28;20051;-56
2022/08/05 07:06:27;;;;;;;1999.90;999.90;;;;;;;27.42;100.00;99484.63;5052601;28;20073;-56
2022/08/05 07:09:11;;;;;;;1999.90;999.90;;;;;;;27.12;100.00;99491.19;5056817;28;20395;-57
2022/08/05 07:11:56;;;;;;;1999.90;999.90;;;;;;;27.19;97.42;99497.69;5048795;28;20445;-56
2022/08/05 07:17:43;;;;;;;1999.90;999.90;;;;;;;28.01;95.75;99486.81;5053534;28;20095;-53
2022/08/05 07:20:27;;;;;;;1999.90;999.90;;;;;;;28.36;92.18;99494.75;5053109;28;20048;-55
2022/08/05 07:23:12;;;;;;;1999.90;999.90;;;;;;;28.01;93.88;99495.72;5057580;28;20079;-56
2022/08/05 07:25:56;;;;;;;1999.90;999.90;;;;;;;28.82;96.81;99483.69;5053130;28;20055;-55
2022/08/05 07:28:41;;;;;;;1999.90;999.90;;;;;;;28.68;91.08;99482.47;5057951;28;20040;-53
2022/08/05 07:31:25;;;;;;;1999.90;999.90;;;;;;;28.73;93.02;99484.69;5057540;28;20082;-56
2022/08/05 07:34:09;;;;;;;1999.90;999.90;;;;;;;29.06;93.03;99491.06;5063691;28;20357;-55
2022/08/05 07:36:53;;;;;;;1999.90;999.90;;;;;;;29.09;90.30;99485.34;5058047;28;20041;-56
2022/08/05 07:39:38;;;;;;;1999.90;999.90;;;;;;;29.04;86.52;99484.97;5054235;28;20107;-56
2022/08/05 07:42:22;;;;;;;1999.90;999.90;;;;;;;29.17;91.23;99484.50;5052572;28;20486;-56
2022/08/05 07:45:07;;;;;;;1999.90;999.90;;;;;;;29.63;88.93;99488.44;5056752;28;20067;-57
2022/08/05 07:47:51;;;;;;;1999.90;999.90;;;;;;;29.79;86.30;99487.59;5052013;28;20074;-56
2022/08/05 07:50:37;;;;;;;1999.90;999.90;;;;;;;28.43;88.46;99489.59;5053957;28;20060;-53
2022/08/05 07:53:21;;;;;;;1999.90;999.90;;;;;;;28.81;88.65;99490.94;5053919;28;20093;-54
2022/08/05 07:56:06;;;;;;;1999.90;999.90;;;;;;;29.48;89.51;99482.88;5061969;28;20055;-55
2022/08/05 07:58:50;;;;;;;1999.90;999.90;;;;;;;30.08;85.29;99486.22;5052513;28;20075;-54
2022/08/05 08:01:34;;;;;;;1999.90;999.90;;;;;;;30.34;86.11;99477.94;5051976;28;20125;-55
2022/08/05 08:04:19;;;;;;;1999.90;999.90;;;;;;;30.08;88.05;99484.38;5057742;28;20136;-55
2022/08/05 08:07:04;;;;;;;1999.90;999.90;;;;;;;30.84;84.00;99483.00;5056744;28;20060;-55
2022/08/05 08:09:50;;;;;;;1999.90;999.90;;;;;;;30.69;83.27;99485.56;5056462;28;20044;-54
2022/08/05 08:12:35;;;;;;;1999.90;999.90;;;;;;;31.09;83.64;99485.53;5057693;28;20059;-56
2022/08/05 08:15:18;;;;;;;1999.90;999.90;;;;;;;31.06;81.38;99484.03;5058254;28;20081;-56
2022/08/05 08:18:03;;;;;;;1999.90;999.90;;;;;;;31.07;84.08;99485.75;5058301;28;20045;-56
2022/08/05 08:20:50;;;;;;;1999.90;999.90;;;;;;;30.88;81.73;99489.72;5059013;28;20048;-56
2022/08/05 08:23:34;;;;;;;1999.90;999.90;;;;;;;32.55;73.57;99483.44;5058355;28;20053;-54
2022/08/05 08:26:20;;;;;;;1999.90;999.90;;;;;;;32.28;76.86;99484.94;5064062;28;20420;-57
2022/08/05 08:29:05;;;;;;;1999.90;999.90;;;;;;;32.13;75.21;99474.06;5064844;28;20045;-56
2022/08/05 08:31:50;;;;;;;1999.90;999.90;;;;;;;31.50;77.99;99469.91;5060640;28;21635;-57
2022/08/05 08:34:35;;;;;;;1999.90;999.90;;;;;;;32.14;85.24;99477.63;5068039;28;20068;-56
2022/08/05 08:37:19;;;;;;;1999.90;999.90;;;;;;;32.20;79.76;99476.88;5067571;28;20090;-58
2022/08/05 08:40:04;;;;;;;1999.90;999.90;;;;;;;32.29;74.32;99470.34;5065314;28;20098;-56
2022/08/05 08:42:50;;;;;;;1999.90;999.90;;;;;;;32.61;74.76;99475.59;5062435;28;20060;-56
2022/08/05 08:45:36;;;;;;;1999.90;999.90;;;;;;;32.79;73.18;99470.59;5063003;28;20053;-54
2022/08/05 08:48:21;;;;;;;1999.90;999.90;;;;;;;32.49;78.88;99473.34;5068226;28;20056;-56
2022/08/05 08:51:06;;;;;;;1999.90;999.90;;;;;;;32.40;73.00;99474.44;5065966;28;20507;-58
2022/08/05 08:53:51;;;;;;;1999.90;999.90;;;;;;;32.56;69.83;99470.72;5058505;28;20060;-57
2022/08/05 08:56:38;;;;;;;1999.90;999.90;;;;;;;32.18;73.39;99476.25;5054228;28;20060;-59
2022/08/05 08:59:23;;;;;;;1999.90;999.90;;;;;;;32.92;73.22;99470.78;5060161;28;20081;-55
2022/08/05 09:02:13;;;;;;;1999.90;999.90;;;;;;;33.29;71.08;99468.91;5058786;28;20037;-55
2022/08/05 09:04:58;;;;;;;1999.90;999.90;;;;;;;33.21;83.69;99467.13;5053349;28;20045;-57
2022/08/05 09:07:42;;;;;;;1999.90;999.90;;;;;;;33.08;69.80;99458.03;5057285;28;20044;-57
2022/08/05 09:10:27;;;;;;;1999.90;999.90;;;;;;;32.91;69.50;99455.53;5065429;28;20592;-56
2022/08/05 09:13:15;;;;;;;1999.90;999.90;;;;;;;34.05;70.69;99450.16;5065776;28;20044;-58
2022/08/05 09:15:59;;;;;;;1999.90;999.90;;;;;;;33.58;69.83;99454.38;5056031;28;20102;-57
2022/08/05 09:18:44;;;;;;;1999.90;999.90;;;;;;;32.98;70.21;99461.06;5069185;28;20047;-56
2022/08/05 09:21:29;;;;;;;1999.90;999.90;;;;;;;33.37;68.05;99452.47;5066508;28;20063;-56
2022/08/05 09:24:14;;;;;;;1999.90;999.90;;;;;;;32.91;67.83;99449.28;5045695;28;20475;-56
2022/08/05 09:26:58;;;;;;;1999.90;999.90;;;;;;;33.82;72.42;99436.81;5071404;28;20068;-56
2022/08/05 09:29:47;;;;;;;1999.90;999.90;;;;;;;34.53;70.41;99447.53;5065171;28;20059;-59
2022/08/05 09:32:36;;;;;;;1999.90;999.90;;;;;;;34.46;64.69;99443.94;5059797;28;20037;-59
2022/08/05 09:35:20;;;;;;;1999.90;999.90;;;;;;;33.00;66.70;99440.84;5057485;28;20087;-58
2022/08/05 09:38:05;;;;;;;1999.90;999.90;;;;;;;34.18;68.83;99441.25;5054374;28;20056;-59
2022/08/05 09:40:51;;;;;;;1999.90;999.90;;;;;;;34.34;62.26;99430.06;5053872;28;20237;-56
2022/08/05 09:43:37;;;;;;;1999.90;999.90;;;;;;;34.39;63.05;99427.59;5059703;28;20056;-59
2022/08/05 09:46:29;;;;;;;1999.90;999.90;;;;;;;34.88;59.44;99417.56;5058924;28;20048;-57
2022/08/05 09:49:22;;;;;;;1999.90;999.90;;;;;;;34.38;67.45;99425.91;5058258;28;21418;-58
2022/08/05 09:52:16;;;;;;;1999.90;999.90;;;;;;;35.47;58.45;99435.03;5058261;28;20044;-56
2022/08/05 09:55:01;;;;;;;1999.90;999.90;;;;;;;35.19;62.73;99433.31;5059427;28;20052;-57
2022/08/05 09:57:46;;;;;;;1999.90;999.90;;;;;;;35.10;59.51;99435.44;5057287;28;20047;-59
2022/08/05 10:00:30;;;;;;;1999.90;999.90;;;;;;;34.79;57.11;99426.94;5060207;28;20475;-57
2022/08/05 10:03:15;;;;;;;1999.90;999.90;;;;;;;35.67;54.45;99427.72;5059203;28;20095;-59
2022/08/05 10:06:08;;;;;;;1999.90;999.90;;;;;;;35.53;54.95;99424.19;5057502;28;20052;-57
2022/08/05 10:08:53;;;;;;;1999.90;999.90;;;;;;;35.24;59.89;99422.66;5058267;28;20102;-56
2022/08/05 10:11:38;;;;;;;1999.90;999.90;;;;;;;35.64;55.00;99417.25;5056789;28;20055;-55
2022/08/05 10:14:28;;;;;;;1999.90;999.90;;;;;;;35.31;54.32;99423.50;5060715;28;20079;-58
2022/08/05 10:17:14;;;;;;;1999.90;999.90;;;;;;;34.78;49.34;99414.41;5063440;28;20407;-56
2022/08/05 10:19:59;;;;;;;1999.90;999.90;;;;;;;35.21;54.27;99414.09;5057562;28;20056;-58
2022/08/05 10:22:44;;;;;;;1999.90;999.90;;;;;;;35.27;50.08;99414.09;5056162;28;20075;-61
2022/08/05 10:25:28;;;;;;;1999.90;999.90;;;;;;;35.34;58.32;99414.09;5063440;28;20049;-59
2022/08/05 10:28:14;;;;;;;1999.90;999.90;;;;;;;34.92;57.42;99418.81;5056523;28;20102;-60
2022/08/05 10:30:59;;;;;;;1999.90;999.90;;;;;;;35.52;48.60;99418.91;5060029;28;20549;-61
2022/08/05 10:33:44;;;;;;;1999.90;999.90;;;;;;;35.80;51.86;99414.09;5057227;28;20040;-56
2022/08/05 10:36:28;;;;;;;1999.90;999.90;;;;;;;35.44;49.60;99410.97;5066783;28;20551;-56
2022/08/05 10:39:18;;;;;;;1999.90;999.90;;;;;;;35.15;47.97;99409.47;5069615;28;20045;-56
2022/08/05 10:42:14;;;;;;;1999.90;999.90;;;;;;;35.14;54.23;99415.97;5060913;28;20064;-58
2022/08/05 10:45:00;;;;;;;1999.90;999.90;;;;;;;35.28;48.07;99409.47;5066463;28;20059;-56
2022/08/05 10:47:45;;;;;;;1999.90;999.90;;;;;;;35.51;48.25;99411.78;5067087;28;20114;-58
2022/08/05 10:50:30;;;;;;;1999.90;999.90;;;;;;;35.51;47.67;99409.91;5067855;28;20046;-57
2022/08/05 10:53:35;;;;;;;1999.90;999.90;;;;;;;35.91;44.95;99401.72;5057407;28;20094;-58
2022/08/05 10:56:23;;;;;;;1999.90;999.90;;;;;;;35.73;48.61;99405.09;5066315;28;20130;-55
2022/08/05 10:59:08;;;;;;;1999.90;999.90;;;;;;;36.03;47.42;99401.94;5061503;28;20131;-55
2022/08/05 11:02:10;;;;;;;1999.90;999.90;;;;;;;36.22;49.49;99392.03;5069756;28;20048;-56
2022/08/05 11:04:55;;;;;;;1999.90;999.90;;;;;;;36.06;48.79;99396.06;5061041;28;20517;-59
2022/08/05 11:07:57;;;;;;;1999.90;999.90;;;;;;;36.06;48.47;99396.06;5062931;28;20044;-58
2022/08/05 11:10:42;;;;;;;1999.90;999.90;;;;;;;36.25;55.63;99395.16;5066450;28;20117;-57
2022/08/05 11:13:45;;;;;;;1999.90;999.90;;;;;;;36.57;48.43;99391.72;5062044;28;20044;-56
2022/08/05 11:16:30;;;;;;;1999.90;999.90;;;;;;;36.27;47.86;99397.66;5062112;28;20537;-55
2022/08/05 11:19:29;;;;;;;1999.90;999.90;;;;;;;36.63;49.88;99397.16;5053310;28;20175;-56
2022/08/05 11:22:36;;;;;;;1999.90;999.90;;;;;;;35.89;47.79;99392.94;5055694;28;20791;-56
2022/08/05 11:25:39;;;;;;;1999.90;999.90;;;;;;;37.08;44.10;99382.59;5052917;28;20519;-56
2022/08/05 11:28:24;;;;;;;1999.90;999.90;;;;;;;36.10;46.85;99386.41;5054802;28;20102;-58
2022/08/05 11:31:08;;;;;;;1999.90;999.90;;;;;;;36.18;45.43;99386.19;5053573;28;20529;-56
2022/08/05 11:33:56;;;;;;;1999.90;999.90;;;;;;;35.21;47.92;99382.25;5051983;28;20166;-57
2022/08/05 11:36:50;;;;;;;1999.90;999.90;;;;;;;35.54;48.24;99379.56;5051825;28;20143;-59
2022/08/05 11:39:50;;;;;;;1999.90;999.90;;;;;;;35.92;46.57;99384.34;5055952;28;20087;-59
2022/08/05 11:42:40;;;;;;;1999.90;999.90;;;;;;;35.88;48.68;99379.50;5053761;28;20041;-59
2022/08/05 11:45:25;;;;;;;1999.90;999.90;;;;;;;36.42;43.36;99372.88;5054061;28;20117;-57
2022/08/05 11:48:09;;;;;;;1999.90;999.90;;;;;;;35.93;48.97;99385.16;5052331;28;20684;-55
2022/08/05 11:50:54;;;;;;;1999.90;999.90;;;;;;;35.44;46.25;99381.00;5055585;28;20123;-57
2022/08/05 11:53:40;;;;;;;1999.90;999.90;;;;;;;35.76;44.73;99382.91;5053579;28;20070;-56
2022/08/05 11:56:24;;;;;;;1999.90;999.90;;;;;;;35.58;46.76;99386.25;5051696;28;20060;-57
2022/08/05 11:59:22;;;;;;;1999.90;999.90;;;;;;;35.65;53.81;99385.41;5046784;28;21135;-58
2022/08/05 12:02:08;;;;;;;1999.90;999.90;;;;;;;35.76;45.93;99382.91;5047894;28;20056;-58
2022/08/05 12:04:52;;;;;;;1999.90;999.90;;;;;;;35.58;47.82;99378.09;5051569;28;20049;-56
2022/08/05 12:07:37;;;;;;;1999.90;999.90;;;;;;;35.43;45.68;99376.63;5050256;28;20768;-55
2022/08/05 12:10:24;;;;;;;1999.90;999.90;;;;;;;36.16;46.86;99371.91;5050414;28;20098;-56
2022/08/05 12:13:09;;;;;;;1999.90;999.90;;;;;;;35.44;52.08;99381.84;5049931;28;20044;-56
2022/08/05 12:15:54;;;;;;;1999.90;999.90;;;;;;;35.06;56.55;99385.16;5048282;28;20057;-54
2022/08/05 12:18:39;;;;;;;1999.90;999.90;;;;;;;34.63;48.24;99380.03;5050292;28;20055;-56